Buckner, Kentucky
Current Conditions -  °F | °C
As of 8:53 PM on Friday 21 Nov 2014 (Local Time) from KLOU Reporting Station
Few Clouds Few Clouds  
Wind Chill: 30°   Ceiling: Unl
Heat Index: 35°   Visibility: 10mi
Dew Point: 13°   Wind: 6mph
Humidity: 40%   Direction: 90°E
Pressure: 30.4"   Gusts: NA
Location:  38.38°N, 85.44°W
Report Text: KLOU 220153Z 09005KT 10SM FEW075 02/M11 A3040 RMK AO2 SLP301 T00171106
Loading
Personal Weather Stations






























Interactive Weather Map New forecast layout! Learn more

10-Day Weather Forecast

Advertisements
Track Severe Weather on mobile